createdAt,value
2022-08-03T00:00:50.893Z,54.80
2022-08-03T00:03:40.719Z,55.00
2022-08-03T00:06:31.671Z,55.20
2022-08-03T00:09:23.591Z,55.20
2022-08-03T00:12:12.101Z,55.20
2022-08-03T00:15:00.565Z,55.30
2022-08-03T00:17:52.770Z,55.40
2022-08-03T00:20:42.979Z,55.40
2022-08-03T00:23:50.845Z,55.50
2022-08-03T00:26:39.898Z,55.50
2022-08-03T00:29:28.410Z,55.60
2022-08-03T00:32:17.194Z,55.70
2022-08-03T00:35:09.925Z,55.70
2022-08-03T00:38:02.310Z,55.90
2022-08-03T00:40:50.774Z,56.10
2022-08-03T00:43:39.217Z,56.10
2022-08-03T00:46:27.672Z,56.20
2022-08-03T00:49:16.142Z,56.30
2022-08-03T00:52:18.150Z,56.30
2022-08-03T00:55:08.929Z,56.60
2022-08-03T00:57:57.749Z,57.00
2022-08-03T01:00:46.320Z,56.90
2022-08-03T01:03:34.898Z,57.30
2022-08-03T01:06:27.157Z,57.50
2022-08-03T01:09:21.484Z,57.80
2022-08-03T01:12:15.992Z,57.80
2022-08-03T01:15:10.425Z,58.00
2022-08-03T01:18:06.585Z,58.10
2022-08-03T01:20:57.507Z,58.10
2022-08-03T01:24:00.606Z,58.10
2022-08-03T01:27:05.475Z,58.30
2022-08-03T01:30:01.558Z,58.80
2022-08-03T01:33:00.844Z,58.60
2022-08-03T01:35:53.182Z,58.70
2022-08-03T01:38:44.306Z,58.70
2022-08-03T01:41:35.656Z,59.10
2022-08-03T01:44:29.321Z,59.20
2022-08-03T01:47:21.193Z,59.20
2022-08-03T01:50:10.570Z,59.50
2022-08-03T01:52:59.428Z,59.30
2022-08-03T01:55:51.271Z,59.60
2022-08-03T01:58:39.756Z,60.20
2022-08-03T02:01:28.362Z,60.40
2022-08-03T02:04:38.180Z,60.40
2022-08-03T02:07:27.113Z,60.90
2022-08-03T02:10:17.027Z,61.60
2022-08-03T02:13:23.499Z,61.40
2022-08-03T02:16:12.046Z,62.30
2022-08-03T02:19:01.132Z,61.40
2022-08-03T02:21:56.767Z,62.00
2022-08-03T02:24:50.987Z,62.80
2022-08-03T02:27:43.773Z,62.60
2022-08-03T02:30:37.847Z,62.80
2022-08-03T02:33:29.597Z,62.70
2022-08-03T02:36:18.324Z,62.90
2022-08-03T02:39:08.631Z,63.30
2022-08-03T02:42:02.367Z,63.70
2022-08-03T02:44:51.951Z,64.00
2022-08-03T02:47:53.409Z,63.50
2022-08-03T02:50:43.122Z,63.70
2022-08-03T02:53:31.804Z,63.70
2022-08-03T02:56:21.641Z,63.90
2022-08-03T02:59:10.161Z,64.30
2022-08-03T03:01:58.677Z,64.20
2022-08-03T03:05:52.602Z,64.70
2022-08-03T03:07:55.980Z,64.70
2022-08-03T03:10:44.474Z,65.50
2022-08-03T03:13:34.278Z,65.40
2022-08-03T03:16:22.738Z,65.60
2022-08-03T03:19:11.267Z,65.60
2022-08-03T03:22:00.081Z,66.20
2022-08-03T03:24:49.577Z,66.00
2022-08-03T03:27:38.079Z,67.00
2022-08-03T03:30:28.468Z,66.20
2022-08-03T03:33:16.984Z,66.80
2022-08-03T03:36:06.401Z,67.50
2022-08-03T03:38:54.986Z,66.70
2022-08-03T03:41:43.468Z,67.00
2022-08-03T03:44:32.200Z,67.20
2022-08-03T03:47:32.665Z,67.40
2022-08-03T03:50:21.569Z,68.40
2022-08-03T03:53:11.159Z,67.70
2022-08-03T03:56:02.404Z,68.10
2022-08-03T03:58:51.502Z,68.30
2022-08-03T04:01:40.134Z,68.00
2022-08-03T04:04:47.546Z,69.10
2022-08-03T04:07:57.511Z,68.90
2022-08-03T04:11:01.825Z,69.00
2022-08-03T04:13:52.688Z,69.30
2022-08-03T04:16:44.067Z,69.70
2022-08-03T04:19:37.861Z,69.90
2022-08-03T04:22:28.233Z,70.50
2022-08-03T04:25:19.279Z,70.50
2022-08-03T04:28:29.827Z,70.70
2022-08-03T04:31:16.450Z,70.90
2022-08-03T04:34:05.065Z,71.20
2022-08-03T04:36:58.614Z,71.40
2022-08-03T04:39:47.079Z,71.80
2022-08-03T04:42:35.608Z,71.80
2022-08-03T04:45:24.121Z,72.00
2022-08-03T04:48:12.681Z,72.10
2022-08-03T04:51:04.322Z,72.40
2022-08-03T04:53:54.176Z,72.50
2022-08-03T04:56:42.745Z,73.30
2022-08-03T04:59:31.293Z,73.40
2022-08-03T05:02:19.784Z,73.90
2022-08-03T05:05:09.285Z,73.90
2022-08-03T05:08:00.749Z,74.00
2022-08-03T05:10:53.208Z,74.30
2022-08-03T05:13:41.739Z,74.70
2022-08-03T05:16:30.255Z,74.70
2022-08-03T05:19:18.768Z,74.90
2022-08-03T05:22:07.272Z,75.40
2022-08-03T05:24:55.751Z,75.60
2022-08-03T05:27:45.614Z,76.20
2022-08-03T05:30:34.695Z,77.80
2022-08-03T05:33:23.314Z,78.10
2022-08-03T05:36:12.601Z,78.10
2022-08-03T05:39:02.909Z,77.50
2022-08-03T05:41:51.575Z,76.90
2022-08-03T05:44:42.111Z,76.60
2022-08-03T05:47:30.655Z,76.70
2022-08-03T05:50:19.899Z,76.50
2022-08-03T05:53:08.398Z,76.70
2022-08-03T05:56:02.090Z,76.40
2022-08-03T05:59:22.447Z,75.40
2022-08-03T06:02:11.857Z,74.00
2022-08-03T06:05:00.347Z,72.50
2022-08-03T06:07:49.292Z,71.70
2022-08-03T06:10:38.436Z,71.40
2022-08-03T06:13:26.957Z,71.20
2022-08-03T06:16:15.434Z,71.10
2022-08-03T06:19:05.583Z,71.20
2022-08-03T06:21:54.107Z,71.70
2022-08-03T06:24:53.385Z,71.70
2022-08-03T06:27:43.040Z,71.70
2022-08-03T06:30:31.728Z,72.10
2022-08-03T06:33:20.296Z,70.50
2022-08-03T06:36:10.302Z,69.50
2022-08-03T06:39:00.820Z,69.10
2022-08-03T06:41:49.360Z,69.10
2022-08-03T06:44:39.709Z,68.30
2022-08-03T06:47:28.448Z,68.20
2022-08-03T06:50:19.002Z,68.00
2022-08-03T06:53:15.616Z,68.10
2022-08-03T06:56:09.886Z,68.90
2022-08-03T06:58:58.420Z,69.00
2022-08-03T07:01:46.973Z,67.50
2022-08-03T07:04:35.532Z,67.10
2022-08-03T07:07:23.995Z,66.10
2022-08-03T07:10:13.871Z,65.20
2022-08-03T07:13:02.392Z,65.70
2022-08-03T07:15:55.222Z,65.40
2022-08-03T07:18:44.752Z,65.30
2022-08-03T07:21:33.202Z,64.00
2022-08-03T07:24:21.781Z,63.60
2022-08-03T07:27:11.707Z,63.80
2022-08-03T07:30:00.380Z,62.40
2022-08-03T07:32:50.327Z,61.80
2022-08-03T07:35:39.267Z,61.30
2022-08-03T07:38:27.720Z,61.00
2022-08-03T07:41:16.235Z,60.80
2022-08-03T07:44:06.458Z,61.00
2022-08-03T07:46:54.958Z,60.40
2022-08-03T07:49:45.265Z,60.50
2022-08-03T07:52:49.484Z,60.00
2022-08-03T07:55:38.180Z,60.30
2022-08-03T07:58:26.673Z,59.40
2022-08-03T08:01:17.095Z,59.70
2022-08-03T08:04:06.044Z,58.70
2022-08-03T08:06:54.565Z,58.00
2022-08-03T08:09:43.234Z,58.60
2022-08-03T08:12:31.743Z,57.80
2022-08-03T08:15:20.169Z,57.70
2022-08-03T08:18:09.951Z,57.50
2022-08-03T08:20:58.431Z,56.40
2022-08-03T08:23:54.935Z,56.70
2022-08-03T08:26:46.357Z,54.10
2022-08-03T08:29:34.978Z,55.00
2022-08-03T08:32:23.507Z,53.90
2022-08-03T08:35:13.488Z,53.50
2022-08-03T08:38:05.639Z,53.30
2022-08-03T08:40:56.264Z,53.80
2022-08-03T08:43:44.956Z,53.80
2022-08-03T08:46:34.204Z,53.10
2022-08-03T08:49:24.467Z,53.00
2022-08-03T08:52:24.917Z,51.70
2022-08-03T08:55:17.121Z,52.20
2022-08-03T08:58:07.212Z,51.40
2022-08-03T09:00:55.797Z,50.40
2022-08-03T09:03:44.542Z,49.80
2022-08-03T09:06:33.017Z,49.10
2022-08-03T09:10:10.146Z,48.20
2022-08-03T09:12:41.935Z,47.60
2022-08-03T09:15:32.339Z,47.80
2022-08-03T09:18:32.416Z,46.80
2022-08-03T09:21:31.704Z,47.40
2022-08-03T09:24:40.806Z,48.30
2022-08-03T09:27:30.338Z,46.80
2022-08-03T09:30:33.732Z,47.10
2022-08-03T09:33:24.550Z,46.70
2022-08-03T09:36:42.856Z,45.30
2022-08-03T09:39:41.371Z,44.00
2022-08-03T09:42:30.781Z,45.40
2022-08-03T09:45:27.782Z,44.10
2022-08-03T09:48:24.068Z,43.60
2022-08-03T09:51:32.946Z,43.70
2022-08-03T09:54:28.735Z,43.00
2022-08-03T09:57:26.006Z,42.80
2022-08-03T10:00:16.512Z,41.60
2022-08-03T10:03:05.673Z,43.40
2022-08-03T10:05:59.332Z,43.50
2022-08-03T10:08:48.414Z,43.40
2022-08-03T10:11:41.372Z,41.80
2022-08-03T10:14:32.552Z,41.30
2022-08-03T10:17:21.152Z,41.20
2022-08-03T10:20:11.796Z,41.80
2022-08-03T10:23:00.304Z,41.60
2022-08-03T10:25:49.364Z,40.20
2022-08-03T10:28:45.273Z,40.60
2022-08-03T10:31:39.527Z,40.80
2022-08-03T10:34:44.730Z,39.90
2022-08-03T10:37:35.420Z,40.90
2022-08-03T10:40:47.665Z,40.00
2022-08-03T10:43:38.892Z,41.00
2022-08-03T10:46:27.435Z,39.80
2022-08-03T10:49:25.533Z,40.50
2022-08-03T10:52:31.676Z,40.10
2022-08-03T10:55:50.584Z,39.90
2022-08-03T10:58:57.643Z,38.90
2022-08-03T11:01:59.102Z,39.30
2022-08-03T11:04:50.813Z,39.30
2022-08-03T11:07:39.333Z,39.20
2022-08-03T11:10:31.593Z,38.70
2022-08-03T11:13:22.085Z,39.00
2022-08-03T11:16:22.343Z,39.00
2022-08-03T11:19:13.550Z,38.80
2022-08-03T11:22:03.995Z,39.00
2022-08-03T11:25:01.763Z,39.20
2022-08-03T11:27:50.279Z,39.10
2022-08-03T11:30:38.761Z,38.60
2022-08-03T11:33:30.928Z,38.10
2022-08-03T11:36:32.507Z,37.70
2022-08-03T11:39:22.610Z,38.70
2022-08-03T11:42:48.485Z,37.70
2022-08-03T11:45:37.256Z,37.40
2022-08-03T11:48:28.022Z,37.90
2022-08-03T11:51:23.827Z,38.00
2022-08-03T11:54:12.360Z,37.70
2022-08-03T11:57:02.184Z,37.90
2022-08-03T11:59:50.715Z,38.00
2022-08-03T12:02:39.221Z,38.10
2022-08-03T12:05:51.362Z,38.10
2022-08-03T12:08:40.712Z,37.50
2022-08-03T12:11:30.604Z,37.80
2022-08-03T12:14:49.815Z,37.20
2022-08-03T12:17:34.784Z,37.20
2022-08-03T12:20:34.583Z,36.60
2022-08-03T12:23:23.920Z,36.40
2022-08-03T12:26:12.430Z,36.00
2022-08-03T12:29:00.953Z,36.40
2022-08-03T12:31:50.785Z,36.40
2022-08-03T12:34:48.691Z,36.70
2022-08-03T12:37:37.663Z,35.30
2022-08-03T12:40:28.364Z,36.50
2022-08-03T12:43:17.052Z,35.80
2022-08-03T12:46:15.979Z,36.80
2022-08-03T12:49:11.170Z,36.70
2022-08-03T12:52:04.079Z,36.50
2022-08-03T12:54:59.290Z,34.90
2022-08-03T12:57:47.799Z,35.10
2022-08-03T13:00:36.353Z,35.80
2022-08-03T13:03:39.718Z,35.30
2022-08-03T13:06:32.343Z,34.90
2022-08-03T13:09:20.848Z,34.70
2022-08-03T13:12:11.458Z,34.60
2022-08-03T13:15:00.647Z,34.80
2022-08-03T13:17:49.163Z,34.30
2022-08-03T13:20:37.676Z,33.90
2022-08-03T13:23:27.670Z,33.60
2022-08-03T13:26:16.144Z,34.00
2022-08-03T13:29:04.610Z,33.60
2022-08-03T13:31:53.736Z,33.50
2022-08-03T13:34:42.231Z,34.00
2022-08-03T13:37:32.062Z,34.20
2022-08-03T13:40:23.661Z,34.30
2022-08-03T13:43:18.500Z,34.50
2022-08-03T13:46:06.943Z,34.20
2022-08-03T13:48:55.405Z,33.60
2022-08-03T13:51:43.960Z,34.00
2022-08-03T13:54:33.883Z,33.90
2022-08-03T13:58:03.078Z,33.70
2022-08-03T14:00:32.264Z,33.80
2022-08-03T14:03:21.286Z,33.90
2022-08-03T14:06:09.803Z,34.00
2022-08-03T14:09:00.639Z,33.90
2022-08-03T14:12:07.248Z,33.80
2022-08-03T14:15:01.433Z,33.50
2022-08-03T14:17:50.344Z,33.60
2022-08-03T14:20:49.071Z,33.80
2022-08-03T14:23:40.357Z,33.90
2022-08-03T14:26:30.384Z,34.00
2022-08-03T14:29:18.886Z,33.90
2022-08-03T14:32:11.211Z,34.40
2022-08-03T14:35:01.329Z,33.70
2022-08-03T14:37:50.093Z,32.80
2022-08-03T14:40:38.575Z,33.10
2022-08-03T14:43:27.285Z,32.90
2022-08-03T14:46:22.775Z,33.30
2022-08-03T14:50:35.759Z,33.00
2022-08-03T14:52:23.521Z,33.30
2022-08-03T14:55:12.026Z,32.90
2022-08-03T14:58:05.563Z,32.90
2022-08-03T15:02:02.579Z,33.10
2022-08-03T15:04:18.691Z,32.90
2022-08-03T15:07:07.343Z,32.50
2022-08-03T15:09:55.815Z,32.70
2022-08-03T15:12:44.321Z,32.80
2022-08-03T15:15:32.902Z,32.80
2022-08-03T15:18:21.375Z,32.70
2022-08-03T15:21:45.935Z,33.10
2022-08-03T15:24:19.655Z,33.00
2022-08-03T15:27:08.248Z,33.10
2022-08-03T15:30:09.349Z,33.00
2022-08-03T15:32:58.735Z,33.20
2022-08-03T15:35:47.679Z,33.20
2022-08-03T15:38:37.777Z,33.10
2022-08-03T15:41:26.277Z,33.10
2022-08-03T15:44:14.772Z,33.10
2022-08-03T15:47:03.252Z,33.10
2022-08-03T15:49:51.765Z,33.20
2022-08-03T15:52:40.315Z,33.30
2022-08-03T15:55:31.071Z,32.60
2022-08-03T15:59:03.267Z,32.80
2022-08-03T16:01:28.256Z,32.60
2022-08-03T16:04:16.787Z,32.90
2022-08-03T16:07:05.343Z,33.00
2022-08-03T16:09:53.867Z,33.10
2022-08-03T16:12:43.734Z,33.20
2022-08-03T16:15:32.273Z,33.30
2022-08-03T16:18:26.996Z,33.30
2022-08-03T16:21:17.780Z,33.30
2022-08-03T16:24:09.113Z,33.20
2022-08-03T16:27:17.407Z,33.20
2022-08-03T16:30:18.435Z,33.10
2022-08-03T16:33:07.009Z,33.30
2022-08-03T16:35:55.606Z,32.90
2022-08-03T16:38:44.103Z,33.10
2022-08-03T16:41:53.532Z,33.20
2022-08-03T16:44:40.998Z,33.00
2022-08-03T16:47:30.889Z,33.30
2022-08-03T16:50:20.180Z,33.20
2022-08-03T16:53:09.728Z,33.20
2022-08-03T16:55:58.566Z,33.60
2022-08-03T16:58:48.145Z,33.40
2022-08-03T17:01:38.916Z,33.50
2022-08-03T17:04:28.818Z,33.50
2022-08-03T17:07:17.794Z,33.60
2022-08-03T17:10:09.708Z,33.60
2022-08-03T17:12:58.948Z,33.40
2022-08-03T17:15:57.727Z,33.80
2022-08-03T17:18:52.345Z,33.80
2022-08-03T17:21:58.341Z,33.30
2022-08-03T17:24:47.836Z,33.40
2022-08-03T17:28:50.422Z,33.50
2022-08-03T17:31:03.560Z,33.50
2022-08-03T17:34:11.952Z,33.50
2022-08-03T17:37:04.564Z,33.70
2022-08-03T17:39:59.046Z,33.80
2022-08-03T17:42:50.473Z,33.70
2022-08-03T17:48:48.463Z,34.60
2022-08-03T17:51:46.511Z,35.10
2022-08-03T17:55:57.326Z,35.60
2022-08-03T17:58:02.076Z,35.90
2022-08-03T18:02:02.569Z,35.80
2022-08-03T18:04:21.103Z,35.60
2022-08-03T18:07:19.398Z,35.70
2022-08-03T18:10:11.489Z,35.90
2022-08-03T18:13:10.551Z,36.40
2022-08-03T18:16:01.625Z,37.00
2022-08-03T18:18:54.511Z,37.50
2022-08-03T18:22:02.562Z,37.50
2022-08-03T18:24:52.393Z,37.80
2022-08-03T18:27:46.012Z,38.20
2022-08-03T18:30:53.996Z,38.60
2022-08-03T18:34:19.272Z,38.70
2022-08-03T18:36:52.597Z,39.20
2022-08-03T18:39:49.898Z,39.60
2022-08-03T18:42:52.757Z,40.00
2022-08-03T18:45:57.226Z,40.40
2022-08-03T18:48:49.916Z,40.50
2022-08-03T18:51:43.355Z,41.20
2022-08-03T18:54:46.002Z,41.70
2022-08-03T18:57:51.516Z,41.90
2022-08-03T19:00:55.068Z,42.30
2022-08-03T19:03:48.378Z,42.70
2022-08-03T19:06:40.828Z,43.30
2022-08-03T19:12:51.610Z,44.10
2022-08-03T19:18:49.516Z,44.60
2022-08-03T19:21:38.210Z,44.30
2022-08-03T19:24:28.237Z,44.70
2022-08-03T19:27:16.808Z,45.00
2022-08-03T19:30:19.961Z,45.00
2022-08-03T19:33:15.851Z,45.40
2022-08-03T19:36:10.471Z,45.50
2022-08-03T19:38:59.600Z,45.40
2022-08-03T19:41:51.560Z,45.60
2022-08-03T19:44:42.085Z,46.00
2022-08-03T19:47:36.193Z,46.10
2022-08-03T19:50:25.185Z,46.20
2022-08-03T19:53:13.927Z,46.50
2022-08-03T19:56:04.888Z,45.70
2022-08-03T19:58:53.708Z,45.60
2022-08-03T20:01:50.365Z,45.70
2022-08-03T20:04:40.921Z,45.70
2022-08-03T20:07:32.232Z,45.70
2022-08-03T20:10:21.051Z,45.60
2022-08-03T20:13:09.794Z,45.60
2022-08-03T20:15:58.257Z,45.60
2022-08-03T20:18:46.744Z,45.60
2022-08-03T20:21:36.560Z,45.80
2022-08-03T20:24:28.042Z,45.60
2022-08-03T20:27:18.933Z,45.60
2022-08-03T20:30:08.753Z,45.60
2022-08-03T20:32:57.236Z,45.70
2022-08-03T20:35:49.270Z,45.60
2022-08-03T20:38:43.814Z,45.70
2022-08-03T20:41:35.883Z,45.90
2022-08-03T20:44:25.913Z,45.80
2022-08-03T20:47:14.549Z,45.80
2022-08-03T20:50:12.933Z,45.80
2022-08-03T20:53:02.021Z,45.70
2022-08-03T20:56:02.067Z,45.70
2022-08-03T20:58:51.261Z,45.80
2022-08-03T21:01:40.304Z,45.80
2022-08-03T21:04:32.856Z,46.00
2022-08-03T21:07:22.837Z,46.00
2022-08-03T21:10:11.751Z,46.00
2022-08-03T21:13:04.674Z,33.70
2022-08-03T21:13:08.888Z,44.10
2022-08-03T21:13:09.559Z,43.70
2022-08-03T21:13:18.193Z,46.10
2022-08-03T21:16:14.725Z,46.20
2022-08-03T21:19:05.083Z,46.00
2022-08-03T21:21:53.578Z,46.10
2022-08-03T21:24:42.102Z,46.10
2022-08-03T21:27:31.474Z,46.10
2022-08-03T21:30:22.454Z,46.20
2022-08-03T21:33:10.907Z,46.20
2022-08-03T21:36:00.167Z,46.10
2022-08-03T21:38:56.461Z,46.10
2022-08-03T21:41:45.396Z,46.20
2022-08-03T21:44:33.833Z,46.20
2022-08-03T21:47:24.101Z,46.30
2022-08-03T21:50:14.120Z,46.50
2022-08-03T21:53:02.608Z,46.50
2022-08-03T21:55:55.428Z,46.50
2022-08-03T21:58:50.975Z,46.60
2022-08-03T22:01:41.101Z,46.80
2022-08-03T22:04:50.706Z,46.60
2022-08-03T22:07:39.466Z,46.70
2022-08-03T22:10:28.681Z,46.80
2022-08-03T22:13:42.913Z,46.80
2022-08-03T22:16:26.892Z,46.90
2022-08-03T22:19:15.367Z,46.90
2022-08-03T22:22:07.525Z,47.00
2022-08-03T22:24:59.602Z,47.20
2022-08-03T22:27:48.125Z,47.10
2022-08-03T22:30:37.166Z,47.10
2022-08-03T22:33:25.724Z,47.20
2022-08-03T22:36:14.243Z,47.30
2022-08-03T22:39:06.380Z,47.40
2022-08-03T22:41:54.891Z,47.50
2022-08-03T22:44:43.383Z,47.40
2022-08-03T22:47:31.852Z,47.50
2022-08-03T22:50:31.539Z,47.50
2022-08-03T22:53:22.740Z,47.50
2022-08-03T22:56:12.600Z,47.70
2022-08-03T22:59:01.056Z,47.70
2022-08-03T23:02:20.245Z,47.80
2022-08-03T23:05:59.469Z,47.90
2022-08-03T23:08:23.819Z,48.50
2022-08-03T23:11:13.681Z,47.90
2022-08-03T23:14:02.157Z,48.00
2022-08-03T23:16:52.453Z,48.00
2022-08-03T23:19:44.810Z,48.00
2022-08-03T23:22:33.938Z,48.00
2022-08-03T23:25:22.544Z,48.10
2022-08-03T23:28:13.404Z,48.20
2022-08-03T23:31:01.892Z,48.20
2022-08-03T23:34:16.634Z,48.10
2022-08-03T23:37:04.624Z,48.20
2022-08-03T23:39:53.147Z,48.20
2022-08-03T23:42:42.070Z,48.20
2022-08-03T23:45:32.424Z,48.30
2022-08-03T23:48:20.901Z,48.20
2022-08-03T23:51:13.969Z,48.20
2022-08-03T23:54:09.720Z,48.40
2022-08-03T23:57:03.103Z,48.30
2022-08-03T23:59:59.928Z,48.70
